sensor_id;sensor_type;location;lat;lon;timestamp;P1;durP1;ratioP1;P2;durP2;ratioP2
62861;SDS011;48953;53.110;5.592;2022-10-31T00:00:16;13.00;;;7.13;;
62861;SDS011;48953;53.110;5.592;2022-10-31T00:02:42;14.48;;;7.93;;
62861;SDS011;48953;53.110;5.592;2022-10-31T00:05:08;14.68;;;7.30;;
62861;SDS011;48953;53.110;5.592;2022-10-31T00:07:34;15.98;;;7.63;;
62861;SDS011;48953;53.110;5.592;2022-10-31T00:09:59;13.38;;;7.60;;
62861;SDS011;48953;53.110;5.592;2022-10-31T00:12:25;27.48;;;8.90;;
62861;SDS011;48953;53.110;5.592;2022-10-31T00:14:51;16.95;;;7.93;;
62861;SDS011;48953;53.110;5.592;2022-10-31T00:17:17;19.67;;;7.50;;
62861;SDS011;48953;53.110;5.592;2022-10-31T00:19:43;18.05;;;8.43;;
62861;SDS011;48953;53.110;5.592;2022-10-31T00:22:08;19.85;;;8.30;;
62861;SDS011;48953;53.110;5.592;2022-10-31T00:24:34;14.65;;;7.65;;
62861;SDS011;48953;53.110;5.592;2022-10-31T00:26:59;16.55;;;8.32;;
62861;SDS011;48953;53.110;5.592;2022-10-31T00:29:25;15.32;;;7.53;;
62861;SDS011;48953;53.110;5.592;2022-10-31T00:31:51;13.70;;;7.68;;
62861;SDS011;48953;53.110;5.592;2022-10-31T00:34:17;17.90;;;7.80;;
62861;SDS011;48953;53.110;5.592;2022-10-31T00:36:42;18.52;;;8.32;;
62861;SDS011;48953;53.110;5.592;2022-10-31T00:39:08;16.67;;;8.27;;
62861;SDS011;48953;53.110;5.592;2022-10-31T00:41:34;18.27;;;7.72;;
62861;SDS011;48953;53.110;5.592;2022-10-31T00:43:59;15.82;;;8.02;;
62861;SDS011;48953;53.110;5.592;2022-10-31T00:46:25;17.00;;;7.82;;
62861;SDS011;48953;53.110;5.592;2022-10-31T00:48:51;16.60;;;7.50;;
62861;SDS011;48953;53.110;5.592;2022-10-31T00:51:16;12.52;;;7.43;;
62861;SDS011;48953;53.110;5.592;2022-10-31T00:53:42;12.40;;;6.90;;
62861;SDS011;48953;53.110;5.592;2022-10-31T00:56:08;14.15;;;7.30;;
62861;SDS011;48953;53.110;5.592;2022-10-31T00:58:33;15.77;;;7.38;;
62861;SDS011;48953;53.110;5.592;2022-10-31T01:00:59;15.32;;;7.38;;
62861;SDS011;48953;53.110;5.592;2022-10-31T01:03:33;13.63;;;7.25;;
62861;SDS011;48953;53.110;5.592;2022-10-31T01:06:15;14.95;;;6.57;;
62861;SDS011;48953;53.110;5.592;2022-10-31T01:08:41;17.33;;;7.13;;
62861;SDS011;48953;53.110;5.592;2022-10-31T01:13:42;18.98;;;6.93;;
62861;SDS011;48953;53.110;5.592;2022-10-31T01:16:10;13.93;;;6.60;;
62861;SDS011;48953;53.110;5.592;2022-10-31T01:18:37;14.77;;;7.00;;
62861;SDS011;48953;53.110;5.592;2022-10-31T01:21:04;15.57;;;7.13;;
62861;SDS011;48953;53.110;5.592;2022-10-31T01:23:30;12.60;;;6.65;;
62861;SDS011;48953;53.110;5.592;2022-10-31T01:25:59;21.17;;;7.85;;
62861;SDS011;48953;53.110;5.592;2022-10-31T01:28:34;22.35;;;9.52;;
62861;SDS011;48953;53.110;5.592;2022-10-31T01:31:05;18.17;;;8.40;;
62861;SDS011;48953;53.110;5.592;2022-10-31T01:36:50;19.52;;;9.25;;
62861;SDS011;48953;53.110;5.592;2022-10-31T01:42:38;20.30;;;9.23;;
62861;SDS011;48953;53.110;5.592;2022-10-31T01:45:04;22.15;;;9.68;;
62861;SDS011;48953;53.110;5.592;2022-10-31T01:47:31;20.42;;;9.43;;
62861;SDS011;48953;53.110;5.592;2022-10-31T01:50:11;21.10;;;10.23;;
62861;SDS011;48953;53.110;5.592;2022-10-31T01:52:41;20.67;;;9.32;;
62861;SDS011;48953;53.110;5.592;2022-10-31T01:57:38;22.00;;;10.52;;
62861;SDS011;48953;53.110;5.592;2022-10-31T02:00:07;21.35;;;10.20;;
62861;SDS011;48953;53.110;5.592;2022-10-31T02:02:34;26.27;;;10.95;;
62861;SDS011;48953;53.110;5.592;2022-10-31T02:05:02;24.23;;;10.95;;
62861;SDS011;48953;53.110;5.592;2022-10-31T02:10:06;27.17;;;10.77;;
62861;SDS011;48953;53.110;5.592;2022-10-31T02:12:32;26.42;;;11.27;;
62861;SDS011;48953;53.110;5.592;2022-10-31T02:15:00;21.77;;;11.52;;
62861;SDS011;48953;53.110;5.592;2022-10-31T02:17:26;23.55;;;10.48;;
62861;SDS011;48953;53.110;5.592;2022-10-31T02:31:39;25.67;;;11.02;;
62861;SDS011;48953;53.110;5.592;2022-10-31T02:34:22;24.55;;;11.63;;
62861;SDS011;48953;53.110;5.592;2022-10-31T02:39:31;30.33;;;12.00;;
62861;SDS011;48953;53.110;5.592;2022-10-31T02:42:20;21.15;;;10.20;;
62861;SDS011;48953;53.110;5.592;2022-10-31T02:48:04;25.90;;;11.60;;
62861;SDS011;48953;53.110;5.592;2022-10-31T02:50:37;25.75;;;11.25;;
62861;SDS011;48953;53.110;5.592;2022-10-31T02:53:06;21.85;;;11.30;;
62861;SDS011;48953;53.110;5.592;2022-10-31T02:57:59;25.17;;;10.75;;
62861;SDS011;48953;53.110;5.592;2022-10-31T03:03:26;23.77;;;11.00;;
62861;SDS011;48953;53.110;5.592;2022-10-31T03:08:43;17.95;;;10.45;;
62861;SDS011;48953;53.110;5.592;2022-10-31T03:11:13;18.55;;;10.20;;
62861;SDS011;48953;53.110;5.592;2022-10-31T03:16:14;24.80;;;10.27;;
62861;SDS011;48953;53.110;5.592;2022-10-31T03:21:39;20.15;;;9.88;;
62861;SDS011;48953;53.110;5.592;2022-10-31T03:24:09;23.23;;;10.20;;
62861;SDS011;48953;53.110;5.592;2022-10-31T03:26:37;16.98;;;9.18;;
62861;SDS011;48953;53.110;5.592;2022-10-31T03:29:06;19.52;;;9.90;;
62861;SDS011;48953;53.110;5.592;2022-10-31T03:31:37;23.60;;;10.43;;
62861;SDS011;48953;53.110;5.592;2022-10-31T03:34:16;19.70;;;10.30;;
62861;SDS011;48953;53.110;5.592;2022-10-31T03:36:44;20.25;;;10.63;;
62861;SDS011;48953;53.110;5.592;2022-10-31T03:39:13;27.80;;;11.43;;
62861;SDS011;48953;53.110;5.592;2022-10-31T03:44:29;19.92;;;11.10;;
62861;SDS011;48953;53.110;5.592;2022-10-31T03:46:58;21.52;;;11.20;;
62861;SDS011;48953;53.110;5.592;2022-10-31T03:49:25;29.88;;;11.75;;
62861;SDS011;48953;53.110;5.592;2022-10-31T03:51:57;29.83;;;12.55;;
62861;SDS011;48953;53.110;5.592;2022-10-31T03:54:40;22.23;;;12.30;;
62861;SDS011;48953;53.110;5.592;2022-10-31T03:59:54;26.05;;;12.68;;
62861;SDS011;48953;53.110;5.592;2022-10-31T04:02:28;21.95;;;12.35;;
62861;SDS011;48953;53.110;5.592;2022-10-31T04:04:57;27.73;;;13.85;;
62861;SDS011;48953;53.110;5.592;2022-10-31T04:07:25;28.60;;;13.95;;
62861;SDS011;48953;53.110;5.592;2022-10-31T04:09:54;30.55;;;14.38;;
62861;SDS011;48953;53.110;5.592;2022-10-31T04:12:21;30.70;;;13.77;;
62861;SDS011;48953;53.110;5.592;2022-10-31T04:14:50;31.50;;;14.68;;
62861;SDS011;48953;53.110;5.592;2022-10-31T04:17:18;41.67;;;14.80;;
62861;SDS011;48953;53.110;5.592;2022-10-31T04:19:47;36.87;;;16.63;;
62861;SDS011;48953;53.110;5.592;2022-10-31T04:22:13;35.60;;;15.43;;
62861;SDS011;48953;53.110;5.592;2022-10-31T04:24:39;30.00;;;14.15;;
62861;SDS011;48953;53.110;5.592;2022-10-31T04:27:05;37.33;;;15.38;;
62861;SDS011;48953;53.110;5.592;2022-10-31T04:29:31;36.63;;;15.20;;
62861;SDS011;48953;53.110;5.592;2022-10-31T04:31:57;32.35;;;15.00;;
62861;SDS011;48953;53.110;5.592;2022-10-31T04:34:22;34.25;;;14.38;;
62861;SDS011;48953;53.110;5.592;2022-10-31T04:36:48;39.88;;;14.40;;
62861;SDS011;48953;53.110;5.592;2022-10-31T04:39:13;25.63;;;13.48;;
62861;SDS011;48953;53.110;5.592;2022-10-31T04:41:39;30.92;;;14.02;;
62861;SDS011;48953;53.110;5.592;2022-10-31T04:44:04;26.38;;;13.07;;
62861;SDS011;48953;53.110;5.592;2022-10-31T04:46:30;29.02;;;15.20;;
62861;SDS011;48953;53.110;5.592;2022-10-31T04:48:56;25.80;;;13.82;;
62861;SDS011;48953;53.110;5.592;2022-10-31T04:51:21;27.35;;;13.68;;
62861;SDS011;48953;53.110;5.592;2022-10-31T04:59:56;35.65;;;14.75;;
62861;SDS011;48953;53.110;5.592;2022-10-31T05:02:22;33.17;;;14.02;;
62861;SDS011;48953;53.110;5.592;2022-10-31T05:04:48;28.13;;;13.75;;
62861;SDS011;48953;53.110;5.592;2022-10-31T05:07:13;38.65;;;15.55;;
62861;SDS011;48953;53.110;5.592;2022-10-31T05:15:49;28.40;;;13.25;;
62861;SDS011;48953;53.110;5.592;2022-10-31T05:18:14;29.50;;;13.20;;
62861;SDS011;48953;53.110;5.592;2022-10-31T05:20:40;25.33;;;13.40;;
62861;SDS011;48953;53.110;5.592;2022-10-31T05:23:06;30.25;;;13.00;;
62861;SDS011;48953;53.110;5.592;2022-10-31T05:25:31;49.70;;;14.40;;
62861;SDS011;48953;53.110;5.592;2022-10-31T05:27:57;21.83;;;12.35;;
62861;SDS011;48953;53.110;5.592;2022-10-31T05:30:24;27.92;;;13.35;;
62861;SDS011;48953;53.110;5.592;2022-10-31T05:32:51;35.45;;;14.77;;
62861;SDS011;48953;53.110;5.592;2022-10-31T05:35:21;30.42;;;13.63;;
62861;SDS011;48953;53.110;5.592;2022-10-31T05:37:49;35.30;;;15.13;;
62861;SDS011;48953;53.110;5.592;2022-10-31T05:40:15;58.08;;;15.07;;
62861;SDS011;48953;53.110;5.592;2022-10-31T05:42:42;30.52;;;14.45;;
62861;SDS011;48953;53.110;5.592;2022-10-31T05:45:09;33.58;;;14.02;;
62861;SDS011;48953;53.110;5.592;2022-10-31T05:47:36;27.23;;;14.18;;
62861;SDS011;48953;53.110;5.592;2022-10-31T05:50:02;25.50;;;13.45;;
62861;SDS011;48953;53.110;5.592;2022-10-31T05:52:28;24.80;;;13.95;;
62861;SDS011;48953;53.110;5.592;2022-10-31T05:54:54;33.05;;;14.10;;
62861;SDS011;48953;53.110;5.592;2022-10-31T05:57:19;31.52;;;14.43;;
62861;SDS011;48953;53.110;5.592;2022-10-31T05:59:45;28.25;;;13.48;;
62861;SDS011;48953;53.110;5.592;2022-10-31T06:02:10;31.63;;;14.10;;
62861;SDS011;48953;53.110;5.592;2022-10-31T06:04:36;34.88;;;15.07;;
62861;SDS011;48953;53.110;5.592;2022-10-31T06:07:01;29.95;;;14.35;;
62861;SDS011;48953;53.110;5.592;2022-10-31T06:09:27;31.67;;;14.20;;
62861;SDS011;48953;53.110;5.592;2022-10-31T06:11:52;29.65;;;14.00;;
62861;SDS011;48953;53.110;5.592;2022-10-31T06:14:18;26.88;;;14.00;;
62861;SDS011;48953;53.110;5.592;2022-10-31T06:16:43;23.98;;;13.77;;
62861;SDS011;48953;53.110;5.592;2022-10-31T06:19:09;23.15;;;13.52;;
62861;SDS011;48953;53.110;5.592;2022-10-31T06:21:35;25.33;;;13.25;;
62861;SDS011;48953;53.110;5.592;2022-10-31T06:24:00;25.48;;;13.57;;
62861;SDS011;48953;53.110;5.592;2022-10-31T06:26:26;24.27;;;13.18;;
62861;SDS011;48953;53.110;5.592;2022-10-31T06:28:51;22.88;;;12.85;;
62861;SDS011;48953;53.110;5.592;2022-10-31T06:31:17;20.60;;;12.95;;
62861;SDS011;48953;53.110;5.592;2022-10-31T06:33:42;23.77;;;13.15;;
62861;SDS011;48953;53.110;5.592;2022-10-31T06:36:08;21.13;;;12.15;;
62861;SDS011;48953;53.110;5.592;2022-10-31T06:38:35;23.05;;;13.43;;
62861;SDS011;48953;53.110;5.592;2022-10-31T06:41:04;18.88;;;12.52;;
62861;SDS011;48953;53.110;5.592;2022-10-31T06:43:30;21.23;;;12.93;;
62861;SDS011;48953;53.110;5.592;2022-10-31T06:45:56;26.73;;;12.98;;
62861;SDS011;48953;53.110;5.592;2022-10-31T06:48:22;27.40;;;14.27;;
62861;SDS011;48953;53.110;5.592;2022-10-31T06:50:48;25.73;;;14.45;;
62861;SDS011;48953;53.110;5.592;2022-10-31T06:53:14;24.73;;;13.63;;
62861;SDS011;48953;53.110;5.592;2022-10-31T06:55:40;26.58;;;14.80;;
62861;SDS011;48953;53.110;5.592;2022-10-31T06:58:06;23.73;;;14.00;;
62861;SDS011;48953;53.110;5.592;2022-10-31T07:00:34;31.90;;;15.45;;
62861;SDS011;48953;53.110;5.592;2022-10-31T07:03:03;23.92;;;15.02;;
62861;SDS011;48953;53.110;5.592;2022-10-31T07:05:31;26.90;;;15.48;;
62861;SDS011;48953;53.110;5.592;2022-10-31T07:08:00;25.02;;;14.70;;
62861;SDS011;48953;53.110;5.592;2022-10-31T07:10:29;26.15;;;15.38;;
62861;SDS011;48953;53.110;5.592;2022-10-31T07:12:57;30.23;;;15.88;;
62861;SDS011;48953;53.110;5.592;2022-10-31T07:15:24;29.05;;;15.27;;
62861;SDS011;48953;53.110;5.592;2022-10-31T07:17:51;27.05;;;15.20;;
62861;SDS011;48953;53.110;5.592;2022-10-31T07:20:17;28.52;;;15.80;;
62861;SDS011;48953;53.110;5.592;2022-10-31T07:22:43;33.78;;;16.27;;
62861;SDS011;48953;53.110;5.592;2022-10-31T07:25:09;27.70;;;15.95;;
62861;SDS011;48953;53.110;5.592;2022-10-31T07:27:36;26.02;;;15.40;;
62861;SDS011;48953;53.110;5.592;2022-10-31T07:30:05;30.73;;;17.10;;
62861;SDS011;48953;53.110;5.592;2022-10-31T07:32:42;29.25;;;16.33;;
62861;SDS011;48953;53.110;5.592;2022-10-31T07:37:39;30.08;;;17.38;;
62861;SDS011;48953;53.110;5.592;2022-10-31T07:40:05;24.63;;;16.75;;
62861;SDS011;48953;53.110;5.592;2022-10-31T07:42:38;22.92;;;15.85;;
62861;SDS011;48953;53.110;5.592;2022-10-31T07:45:06;23.10;;;15.30;;
62861;SDS011;48953;53.110;5.592;2022-10-31T07:47:38;22.27;;;14.60;;
62861;SDS011;48953;53.110;5.592;2022-10-31T07:50:11;21.40;;;14.50;;
62861;SDS011;48953;53.110;5.592;2022-10-31T07:52:48;21.90;;;13.93;;
62861;SDS011;48953;53.110;5.592;2022-10-31T07:55:22;16.98;;;13.23;;
62861;SDS011;48953;53.110;5.592;2022-10-31T07:57:55;18.17;;;12.57;;
62861;SDS011;48953;53.110;5.592;2022-10-31T08:00:21;21.92;;;13.73;;
62861;SDS011;48953;53.110;5.592;2022-10-31T08:02:47;16.27;;;11.85;;
62861;SDS011;48953;53.110;5.592;2022-10-31T08:05:12;16.40;;;12.30;;
62861;SDS011;48953;53.110;5.592;2022-10-31T08:07:38;14.98;;;11.23;;
62861;SDS011;48953;53.110;5.592;2022-10-31T08:10:04;18.35;;;11.98;;
62861;SDS011;48953;53.110;5.592;2022-10-31T08:12:30;14.73;;;10.65;;
62861;SDS011;48953;53.110;5.592;2022-10-31T08:14:56;16.08;;;11.23;;
62861;SDS011;48953;53.110;5.592;2022-10-31T08:17:21;17.60;;;11.30;;
62861;SDS011;48953;53.110;5.592;2022-10-31T08:19:47;14.90;;;11.50;;
62861;SDS011;48953;53.110;5.592;2022-10-31T08:22:12;15.98;;;11.15;;
62861;SDS011;48953;53.110;5.592;2022-10-31T08:24:38;13.25;;;10.63;;
62861;SDS011;48953;53.110;5.592;2022-10-31T08:27:03;16.55;;;11.40;;
62861;SDS011;48953;53.110;5.592;2022-10-31T08:29:29;14.32;;;10.80;;
62861;SDS011;48953;53.110;5.592;2022-10-31T08:31:55;16.75;;;11.65;;
62861;SDS011;48953;53.110;5.592;2022-10-31T08:34:22;15.60;;;10.77;;
62861;SDS011;48953;53.110;5.592;2022-10-31T08:36:48;14.40;;;10.90;;
62861;SDS011;48953;53.110;5.592;2022-10-31T08:39:14;15.30;;;11.13;;
62861;SDS011;48953;53.110;5.592;2022-10-31T08:41:40;16.00;;;10.75;;
62861;SDS011;48953;53.110;5.592;2022-10-31T08:44:05;14.93;;;11.27;;
62861;SDS011;48953;53.110;5.592;2022-10-31T08:46:31;15.50;;;11.23;;
62861;SDS011;48953;53.110;5.592;2022-10-31T08:48:56;15.05;;;10.25;;
62861;SDS011;48953;53.110;5.592;2022-10-31T08:51:22;12.98;;;10.68;;
62861;SDS011;48953;53.110;5.592;2022-10-31T08:53:48;13.30;;;10.43;;
62861;SDS011;48953;53.110;5.592;2022-10-31T08:56:13;14.13;;;11.18;;
62861;SDS011;48953;53.110;5.592;2022-10-31T08:58:39;12.73;;;9.70;;
62861;SDS011;48953;53.110;5.592;2022-10-31T09:01:04;15.48;;;11.43;;
62861;SDS011;48953;53.110;5.592;2022-10-31T09:03:30;13.32;;;10.65;;
62861;SDS011;48953;53.110;5.592;2022-10-31T09:06:01;14.45;;;10.10;;
62861;SDS011;48953;53.110;5.592;2022-10-31T09:08:31;14.68;;;11.45;;
62861;SDS011;48953;53.110;5.592;2022-10-31T09:10:57;15.40;;;10.50;;
62861;SDS011;48953;53.110;5.592;2022-10-31T09:13:23;14.65;;;11.93;;
62861;SDS011;48953;53.110;5.592;2022-10-31T09:15:50;17.42;;;11.77;;
62861;SDS011;48953;53.110;5.592;2022-10-31T09:18:17;19.83;;;11.57;;
62861;SDS011;48953;53.110;5.592;2022-10-31T09:20:44;14.38;;;11.00;;
62861;SDS011;48953;53.110;5.592;2022-10-31T09:23:18;14.93;;;10.93;;
62861;SDS011;48953;53.110;5.592;2022-10-31T09:25:46;15.10;;;10.98;;
62861;SDS011;48953;53.110;5.592;2022-10-31T09:28:13;14.82;;;10.73;;
62861;SDS011;48953;53.110;5.592;2022-10-31T09:30:40;14.43;;;10.32;;
62861;SDS011;48953;53.110;5.592;2022-10-31T09:33:09;15.80;;;10.70;;
62861;SDS011;48953;53.110;5.592;2022-10-31T09:35:36;14.43;;;10.38;;
62861;SDS011;48953;53.110;5.592;2022-10-31T09:38:03;16.63;;;10.75;;
62861;SDS011;48953;53.110;5.592;2022-10-31T09:46:02;14.05;;;10.23;;
62861;SDS011;48953;53.110;5.592;2022-10-31T09:48:51;18.25;;;10.63;;
62861;SDS011;48953;53.110;5.592;2022-10-31T09:56:42;16.90;;;11.07;;
62861;SDS011;48953;53.110;5.592;2022-10-31T09:59:23;18.35;;;11.30;;
62861;SDS011;48953;53.110;5.592;2022-10-31T10:01:54;17.70;;;11.38;;
62861;SDS011;48953;53.110;5.592;2022-10-31T10:07:01;18.02;;;12.40;;
62861;SDS011;48953;53.110;5.592;2022-10-31T10:09:33;16.42;;;12.05;;
62861;SDS011;48953;53.110;5.592;2022-10-31T10:15:05;21.92;;;12.70;;
62861;SDS011;48953;53.110;5.592;2022-10-31T10:18:01;19.67;;;13.20;;
62861;SDS011;48953;53.110;5.592;2022-10-31T10:20:40;19.90;;;13.07;;
62861;SDS011;48953;53.110;5.592;2022-10-31T10:26:01;24.27;;;13.88;;
62861;SDS011;48953;53.110;5.592;2022-10-31T10:31:06;22.77;;;14.13;;
62861;SDS011;48953;53.110;5.592;2022-10-31T10:33:43;21.23;;;14.05;;
62861;SDS011;48953;53.110;5.592;2022-10-31T10:36:31;21.95;;;14.13;;
62861;SDS011;48953;53.110;5.592;2022-10-31T10:39:05;19.15;;;12.85;;
62861;SDS011;48953;53.110;5.592;2022-10-31T10:41:40;23.23;;;13.40;;
62861;SDS011;48953;53.110;5.592;2022-10-31T10:44:09;22.95;;;14.52;;
62861;SDS011;48953;53.110;5.592;2022-10-31T10:46:56;22.88;;;13.90;;
62861;SDS011;48953;53.110;5.592;2022-10-31T10:49:48;21.83;;;13.30;;
62861;SDS011;48953;53.110;5.592;2022-10-31T10:52:30;21.73;;;13.27;;
62861;SDS011;48953;53.110;5.592;2022-10-31T10:55:23;22.40;;;13.32;;
62861;SDS011;48953;53.110;5.592;2022-10-31T10:58:08;25.95;;;13.80;;
62861;SDS011;48953;53.110;5.592;2022-10-31T11:00:39;21.27;;;12.60;;
62861;SDS011;48953;53.110;5.592;2022-10-31T11:03:07;23.70;;;12.88;;
62861;SDS011;48953;53.110;5.592;2022-10-31T11:07:59;22.88;;;13.20;;
62861;SDS011;48953;53.110;5.592;2022-10-31T11:10:24;22.80;;;14.27;;
62861;SDS011;48953;53.110;5.592;2022-10-31T11:12:58;21.65;;;13.05;;
62861;SDS011;48953;53.110;5.592;2022-10-31T11:15:33;20.63;;;13.55;;
62861;SDS011;48953;53.110;5.592;2022-10-31T11:18:02;21.70;;;13.05;;
62861;SDS011;48953;53.110;5.592;2022-10-31T11:20:33;16.67;;;10.93;;
62861;SDS011;48953;53.110;5.592;2022-10-31T11:23:17;17.73;;;11.15;;
62861;SDS011;48953;53.110;5.592;2022-10-31T11:25:51;15.18;;;10.20;;
62861;SDS011;48953;53.110;5.592;2022-10-31T11:28:23;17.25;;;10.52;;
62861;SDS011;48953;53.110;5.592;2022-10-31T11:33:19;19.52;;;9.48;;
62861;SDS011;48953;53.110;5.592;2022-10-31T11:35:49;12.38;;;8.23;;
62861;SDS011;48953;53.110;5.592;2022-10-31T11:38:17;13.95;;;9.68;;
62861;SDS011;48953;53.110;5.592;2022-10-31T11:41:00;15.88;;;9.00;;
62861;SDS011;48953;53.110;5.592;2022-10-31T11:43:34;14.95;;;9.05;;
62861;SDS011;48953;53.110;5.592;2022-10-31T11:46:08;14.13;;;8.15;;
62861;SDS011;48953;53.110;5.592;2022-10-31T11:48:35;11.93;;;8.25;;
62861;SDS011;48953;53.110;5.592;2022-10-31T11:51:01;12.55;;;8.55;;
62861;SDS011;48953;53.110;5.592;2022-10-31T11:53:31;13.50;;;8.93;;
62861;SDS011;48953;53.110;5.592;2022-10-31T11:56:03;13.98;;;9.18;;
62861;SDS011;48953;53.110;5.592;2022-10-31T11:58:37;13.85;;;8.65;;
62861;SDS011;48953;53.110;5.592;2022-10-31T12:01:02;15.65;;;9.57;;
62861;SDS011;48953;53.110;5.592;2022-10-31T12:03:42;16.67;;;10.73;;
62861;SDS011;48953;53.110;5.592;2022-10-31T12:06:32;15.82;;;10.30;;
62861;SDS011;48953;53.110;5.592;2022-10-31T12:09:00;18.05;;;10.05;;
62861;SDS011;48953;53.110;5.592;2022-10-31T12:17:11;15.73;;;10.95;;
62861;SDS011;48953;53.110;5.592;2022-10-31T12:25:34;16.83;;;11.95;;
62861;SDS011;48953;53.110;5.592;2022-10-31T12:34:20;18.90;;;12.88;;
62861;SDS011;48953;53.110;5.592;2022-10-31T12:39:56;22.23;;;14.32;;
62861;SDS011;48953;53.110;5.592;2022-10-31T12:59:36;18.83;;;12.05;;
62861;SDS011;48953;53.110;5.592;2022-10-31T13:02:28;20.45;;;11.85;;
62861;SDS011;48953;53.110;5.592;2022-10-31T13:05:00;16.42;;;9.10;;
62861;SDS011;48953;53.110;5.592;2022-10-31T13:13:35;16.52;;;8.75;;
62861;SDS011;48953;53.110;5.592;2022-10-31T13:18:50;13.93;;;7.18;;
62861;SDS011;48953;53.110;5.592;2022-10-31T13:21:23;14.40;;;7.57;;
62861;SDS011;48953;53.110;5.592;2022-10-31T13:23:55;13.10;;;6.30;;
62861;SDS011;48953;53.110;5.592;2022-10-31T13:26:36;13.23;;;6.57;;
62861;SDS011;48953;53.110;5.592;2022-10-31T13:29:09;12.93;;;5.97;;
62861;SDS011;48953;53.110;5.592;2022-10-31T13:31:41;11.68;;;6.15;;
62861;SDS011;48953;53.110;5.592;2022-10-31T13:34:18;12.93;;;4.88;;
62861;SDS011;48953;53.110;5.592;2022-10-31T13:39:52;7.50;;;4.10;;
62861;SDS011;48953;53.110;5.592;2022-10-31T13:45:19;10.32;;;5.38;;
62861;SDS011;48953;53.110;5.592;2022-10-31T13:47:57;11.63;;;5.53;;
62861;SDS011;48953;53.110;5.592;2022-10-31T13:50:26;7.22;;;4.75;;
62861;SDS011;48953;53.110;5.592;2022-10-31T13:53:09;9.40;;;5.30;;
62861;SDS011;48953;53.110;5.592;2022-10-31T13:55:46;9.70;;;5.65;;
62861;SDS011;48953;53.110;5.592;2022-10-31T13:58:30;12.10;;;5.60;;
62861;SDS011;48953;53.110;5.592;2022-10-31T14:01:13;11.68;;;5.85;;
62861;SDS011;48953;53.110;5.592;2022-10-31T14:04:51;10.00;;;5.47;;
62861;SDS011;48953;53.110;5.592;2022-10-31T14:06:53;10.88;;;5.75;;
62861;SDS011;48953;53.110;5.592;2022-10-31T14:11:48;10.52;;;6.35;;
62861;SDS011;48953;53.110;5.592;2022-10-31T14:14:15;8.77;;;5.22;;
62861;SDS011;48953;53.110;5.592;2022-10-31T14:16:44;9.05;;;5.75;;
62861;SDS011;48953;53.110;5.592;2022-10-31T14:19:15;11.05;;;6.15;;
62861;SDS011;48953;53.110;5.592;2022-10-31T14:21:46;10.70;;;6.20;;
62861;SDS011;48953;53.110;5.592;2022-10-31T14:26:55;10.68;;;6.90;;
62861;SDS011;48953;53.110;5.592;2022-10-31T14:29:26;12.50;;;6.72;;
62861;SDS011;48953;53.110;5.592;2022-10-31T14:39:47;11.57;;;7.10;;
62861;SDS011;48953;53.110;5.592;2022-10-31T14:48:37;13.52;;;7.65;;
62861;SDS011;48953;53.110;5.592;2022-10-31T14:51:13;13.57;;;7.30;;
62861;SDS011;48953;53.110;5.592;2022-10-31T14:53:48;12.73;;;7.45;;
62861;SDS011;48953;53.110;5.592;2022-10-31T14:56:26;12.85;;;6.90;;
62861;SDS011;48953;53.110;5.592;2022-10-31T14:58:55;17.88;;;8.02;;
62861;SDS011;48953;53.110;5.592;2022-10-31T15:03:52;12.23;;;8.70;;
62861;SDS011;48953;53.110;5.592;2022-10-31T15:06:22;15.00;;;7.97;;
62861;SDS011;48953;53.110;5.592;2022-10-31T15:08:53;13.35;;;8.07;;
62861;SDS011;48953;53.110;5.592;2022-10-31T15:11:23;14.63;;;7.80;;
62861;SDS011;48953;53.110;5.592;2022-10-31T15:13:51;10.10;;;7.20;;
62861;SDS011;48953;53.110;5.592;2022-10-31T15:16:26;12.95;;;7.40;;
62861;SDS011;48953;53.110;5.592;2022-10-31T15:19:05;14.60;;;7.75;;
62861;SDS011;48953;53.110;5.592;2022-10-31T15:21:32;15.10;;;7.63;;
62861;SDS011;48953;53.110;5.592;2022-10-31T15:23:59;13.80;;;7.30;;
62861;SDS011;48953;53.110;5.592;2022-10-31T15:26:38;14.88;;;7.22;;
62861;SDS011;48953;53.110;5.592;2022-10-31T15:29:18;13.40;;;6.95;;
62861;SDS011;48953;53.110;5.592;2022-10-31T15:34:25;10.57;;;6.85;;
62861;SDS011;48953;53.110;5.592;2022-10-31T15:37:08;9.63;;;6.15;;
62861;SDS011;48953;53.110;5.592;2022-10-31T15:39:36;10.93;;;6.30;;
62861;SDS011;48953;53.110;5.592;2022-10-31T15:42:02;10.30;;;6.65;;
62861;SDS011;48953;53.110;5.592;2022-10-31T15:44:32;10.93;;;6.38;;
62861;SDS011;48953;53.110;5.592;2022-10-31T15:47:01;9.20;;;5.80;;
62861;SDS011;48953;53.110;5.592;2022-10-31T15:49:36;8.80;;;5.72;;
62861;SDS011;48953;53.110;5.592;2022-10-31T15:52:28;10.43;;;5.13;;
62861;SDS011;48953;53.110;5.592;2022-10-31T15:54:55;11.93;;;6.53;;
62861;SDS011;48953;53.110;5.592;2022-10-31T15:57:24;11.30;;;6.38;;
62861;SDS011;48953;53.110;5.592;2022-10-31T15:59:53;10.70;;;5.80;;
62861;SDS011;48953;53.110;5.592;2022-10-31T16:02:20;8.48;;;6.00;;
62861;SDS011;48953;53.110;5.592;2022-10-31T16:04:51;10.60;;;5.45;;
62861;SDS011;48953;53.110;5.592;2022-10-31T16:07:22;11.55;;;5.78;;
62861;SDS011;48953;53.110;5.592;2022-10-31T16:12:29;10.82;;;5.15;;
62861;SDS011;48953;53.110;5.592;2022-10-31T16:14:59;12.18;;;5.40;;
62861;SDS011;48953;53.110;5.592;2022-10-31T16:17:26;11.25;;;4.60;;
62861;SDS011;48953;53.110;5.592;2022-10-31T16:19:56;9.32;;;4.40;;
62861;SDS011;48953;53.110;5.592;2022-10-31T16:22:33;5.55;;;4.03;;
62861;SDS011;48953;53.110;5.592;2022-10-31T16:27:32;8.85;;;3.63;;
62861;SDS011;48953;53.110;5.592;2022-10-31T16:30:00;7.63;;;3.50;;
62861;SDS011;48953;53.110;5.592;2022-10-31T16:35:23;9.05;;;3.83;;
62861;SDS011;48953;53.110;5.592;2022-10-31T16:37:49;6.35;;;3.30;;
62861;SDS011;48953;53.110;5.592;2022-10-31T16:40:15;11.57;;;4.03;;
62861;SDS011;48953;53.110;5.592;2022-10-31T16:42:41;9.82;;;3.63;;
62861;SDS011;48953;53.110;5.592;2022-10-31T16:45:08;8.82;;;3.53;;
62861;SDS011;48953;53.110;5.592;2022-10-31T16:47:41;8.13;;;3.08;;
62861;SDS011;48953;53.110;5.592;2022-10-31T16:50:13;9.70;;;3.80;;
62861;SDS011;48953;53.110;5.592;2022-10-31T16:52:41;7.47;;;4.07;;
62861;SDS011;48953;53.110;5.592;2022-10-31T16:55:10;10.73;;;4.28;;
62861;SDS011;48953;53.110;5.592;2022-10-31T16:57:37;8.25;;;3.88;;
62861;SDS011;48953;53.110;5.592;2022-10-31T17:00:02;6.65;;;4.00;;
62861;SDS011;48953;53.110;5.592;2022-10-31T17:02:28;8.10;;;4.05;;
62861;SDS011;48953;53.110;5.592;2022-10-31T17:04:54;9.45;;;4.68;;
62861;SDS011;48953;53.110;5.592;2022-10-31T17:07:20;12.20;;;4.60;;
62861;SDS011;48953;53.110;5.592;2022-10-31T17:09:45;10.95;;;5.15;;
62861;SDS011;48953;53.110;5.592;2022-10-31T17:12:13;9.77;;;5.40;;
62861;SDS011;48953;53.110;5.592;2022-10-31T17:14:42;12.15;;;5.43;;
62861;SDS011;48953;53.110;5.592;2022-10-31T17:17:14;12.07;;;4.75;;
62861;SDS011;48953;53.110;5.592;2022-10-31T17:19:40;12.40;;;5.72;;
62861;SDS011;48953;53.110;5.592;2022-10-31T17:22:06;11.45;;;5.10;;
62861;SDS011;48953;53.110;5.592;2022-10-31T17:24:35;10.13;;;4.78;;
62861;SDS011;48953;53.110;5.592;2022-10-31T17:27:01;10.52;;;5.72;;
62861;SDS011;48953;53.110;5.592;2022-10-31T17:29:26;14.88;;;6.50;;
62861;SDS011;48953;53.110;5.592;2022-10-31T17:31:52;11.32;;;6.30;;
62861;SDS011;48953;53.110;5.592;2022-10-31T17:34:17;9.48;;;5.80;;
62861;SDS011;48953;53.110;5.592;2022-10-31T17:36:48;11.73;;;5.82;;
62861;SDS011;48953;53.110;5.592;2022-10-31T17:39:15;15.02;;;6.60;;